createdAt,value
2018-12-17T00:00:13.476Z,24.47
2018-12-17T00:02:41.867Z,24.90
2018-12-17T00:05:10.169Z,24.02
2018-12-17T00:07:38.338Z,26.40
2018-12-17T00:10:06.681Z,28.73
2018-12-17T00:12:34.880Z,26.95
2018-12-17T00:15:03.119Z,28.05
2018-12-17T00:17:31.292Z,26.68
2018-12-17T00:19:59.448Z,28.32
2018-12-17T00:22:27.592Z,27.65
2018-12-17T00:24:55.761Z,28.20
2018-12-17T00:27:23.972Z,31.30
2018-12-17T00:29:52.140Z,28.62
2018-12-17T00:32:20.304Z,27.62
2018-12-17T00:34:48.463Z,34.13
2018-12-17T00:37:16.748Z,31.35
2018-12-17T00:39:44.891Z,31.85
2018-12-17T00:42:13.030Z,24.20
2018-12-17T00:44:41.216Z,27.30
2018-12-17T00:47:09.386Z,26.35
2018-12-17T00:49:37.524Z,24.98
2018-12-17T00:52:05.726Z,26.42
2018-12-17T00:54:33.871Z,27.00
2018-12-17T00:57:02.008Z,26.75
2018-12-17T00:59:30.152Z,26.23
2018-12-17T01:01:58.575Z,27.22
2018-12-17T01:04:26.716Z,26.15
2018-12-17T01:06:54.947Z,27.25
2018-12-17T01:09:23.611Z,25.32
2018-12-17T01:11:51.909Z,22.98
2018-12-17T01:14:20.040Z,23.70
2018-12-17T01:16:48.325Z,24.90
2018-12-17T01:19:16.469Z,22.98
2018-12-17T01:21:44.778Z,27.48
2018-12-17T01:24:13.000Z,27.80
2018-12-17T01:26:41.152Z,25.27
2018-12-17T01:29:09.320Z,25.62
2018-12-17T01:31:37.468Z,26.05
2018-12-17T01:34:05.958Z,23.95
2018-12-17T01:36:34.197Z,23.10
2018-12-17T01:39:02.494Z,22.37
2018-12-17T01:41:30.712Z,21.62
2018-12-17T01:43:58.945Z,21.30
2018-12-17T01:46:27.077Z,26.40
2018-12-17T01:48:55.216Z,22.85
2018-12-17T01:51:23.427Z,25.10
2018-12-17T01:53:51.576Z,23.75
2018-12-17T01:56:19.785Z,24.63
2018-12-17T01:58:47.920Z,24.92
2018-12-17T02:01:16.055Z,22.17
2018-12-17T02:03:44.203Z,21.62
2018-12-17T02:06:12.373Z,22.62
2018-12-17T02:08:40.580Z,22.13
2018-12-17T02:11:08.791Z,22.65
2018-12-17T02:13:37.613Z,22.55
2018-12-17T02:16:05.840Z,21.07
2018-12-17T02:18:34.071Z,21.45
2018-12-17T02:21:02.225Z,20.95
2018-12-17T02:23:30.368Z,18.75
2018-12-17T02:25:58.500Z,20.12
2018-12-17T02:28:26.639Z,19.45
2018-12-17T02:30:54.796Z,21.52
2018-12-17T02:33:23.044Z,18.70
2018-12-17T02:35:51.194Z,18.82
2018-12-17T02:38:19.436Z,16.85
2018-12-17T02:40:47.660Z,17.90
2018-12-17T02:43:15.868Z,16.62
2018-12-17T02:45:44.020Z,16.82
2018-12-17T02:48:12.238Z,16.75
2018-12-17T02:50:40.426Z,17.98
2018-12-17T02:53:08.548Z,16.27
2018-12-17T02:55:36.691Z,17.20
2018-12-17T02:58:04.921Z,15.20
2018-12-17T03:00:33.066Z,15.53
2018-12-17T03:03:01.214Z,14.75
2018-12-17T03:05:29.348Z,16.17
2018-12-17T03:07:57.548Z,16.57
2018-12-17T03:10:25.779Z,17.73
2018-12-17T03:12:54.085Z,16.87
2018-12-17T03:15:22.229Z,17.27
2018-12-17T03:17:50.353Z,15.38
2018-12-17T03:20:18.496Z,16.27
2018-12-17T03:22:46.645Z,15.90
2018-12-17T03:25:14.796Z,17.45
2018-12-17T03:27:43.029Z,17.12
2018-12-17T03:30:11.245Z,17.67
2018-12-17T03:32:39.477Z,16.35
2018-12-17T03:35:07.691Z,17.05
2018-12-17T03:37:35.836Z,17.62
2018-12-17T03:40:04.670Z,18.92
2018-12-17T03:42:32.913Z,19.67
2018-12-17T03:45:01.150Z,18.35
2018-12-17T03:47:29.348Z,20.90
2018-12-17T03:49:57.508Z,20.43
2018-12-17T03:52:25.725Z,19.87
2018-12-17T03:54:53.860Z,18.67
2018-12-17T03:57:21.995Z,20.17
2018-12-17T03:59:50.137Z,20.37
2018-12-17T04:02:18.346Z,18.82
2018-12-17T04:04:46.973Z,19.80
2018-12-17T04:07:15.121Z,23.98
2018-12-17T04:09:43.265Z,19.82
2018-12-17T04:12:11.469Z,19.35
2018-12-17T04:14:39.727Z,20.30
2018-12-17T04:17:07.860Z,23.02
2018-12-17T04:19:35.996Z,34.70
2018-12-17T04:22:04.299Z,29.70
2018-12-17T04:24:32.442Z,24.75
2018-12-17T04:27:00.733Z,19.73
2018-12-17T04:29:28.879Z,19.87
2018-12-17T04:31:57.016Z,20.80
2018-12-17T04:34:25.317Z,20.62
2018-12-17T04:36:53.490Z,21.95
2018-12-17T04:39:21.747Z,18.40
2018-12-17T04:41:49.896Z,14.63
2018-12-17T04:44:18.048Z,14.30
2018-12-17T04:46:46.196Z,15.35
2018-12-17T04:49:14.328Z,13.22
2018-12-17T04:51:42.543Z,15.00
2018-12-17T04:54:10.700Z,13.15
2018-12-17T04:56:38.845Z,14.45
2018-12-17T04:59:14.400Z,15.55
2018-12-17T05:01:37.312Z,13.98
2018-12-17T05:04:05.590Z,13.93
2018-12-17T05:06:33.739Z,17.15
2018-12-17T05:09:01.876Z,13.53
2018-12-17T05:11:30.050Z,14.95
2018-12-17T05:13:58.184Z,14.15
2018-12-17T05:16:26.411Z,14.10
2018-12-17T05:18:54.557Z,14.03
2018-12-17T05:21:22.705Z,14.15
2018-12-17T05:23:50.920Z,13.90
2018-12-17T05:26:19.065Z,12.95
2018-12-17T05:28:47.300Z,13.65
2018-12-17T05:31:15.436Z,16.73
2018-12-17T05:33:43.835Z,16.48
2018-12-17T05:36:12.626Z,12.43
2018-12-17T05:38:43.278Z,15.25
2018-12-17T05:41:14.298Z,18.12
2018-12-17T05:43:43.860Z,12.78
2018-12-17T05:46:12.013Z,11.95
2018-12-17T05:48:40.200Z,11.50
2018-12-17T05:51:14.413Z,16.55
2018-12-17T05:53:46.524Z,14.00
2018-12-17T05:56:14.853Z,14.53
2018-12-17T05:58:42.989Z,15.00
2018-12-17T06:01:11.191Z,13.20
2018-12-17T06:03:43.479Z,14.68
2018-12-17T06:06:24.040Z,17.90
2018-12-17T06:08:52.183Z,17.95
2018-12-17T06:11:20.356Z,19.90
2018-12-17T06:13:54.349Z,17.32
2018-12-17T06:16:22.671Z,19.87
2018-12-17T06:18:50.820Z,14.38
2018-12-17T06:21:18.993Z,17.20
2018-12-17T06:23:47.112Z,22.90
2018-12-17T06:26:15.284Z,19.57
2018-12-17T06:28:43.408Z,19.37
2018-12-17T06:31:11.554Z,22.45
2018-12-17T06:33:39.757Z,19.15
2018-12-17T06:36:07.948Z,20.82
2018-12-17T06:38:36.099Z,19.62
2018-12-17T06:41:04.392Z,22.22
2018-12-17T06:43:32.528Z,19.52
2018-12-17T06:46:00.676Z,20.52
2018-12-17T06:48:28.860Z,19.05
2018-12-17T06:50:57.179Z,17.70
2018-12-17T06:53:25.299Z,19.07
2018-12-17T06:55:53.455Z,17.75
2018-12-17T06:58:21.979Z,15.55
2018-12-17T07:00:50.197Z,15.32
2018-12-17T07:03:18.328Z,13.83
2018-12-17T07:05:46.475Z,17.17
2018-12-17T07:08:18.429Z,20.02
2018-12-17T07:10:47.222Z,18.70
2018-12-17T07:13:15.972Z,18.48
2018-12-17T07:15:44.148Z,15.38
2018-12-17T07:18:12.314Z,15.98
2018-12-17T07:20:40.444Z,16.60
2018-12-17T07:23:08.613Z,14.83
2018-12-17T07:25:36.814Z,15.25
2018-12-17T07:28:05.074Z,15.45
2018-12-17T07:30:33.375Z,16.60
2018-12-17T07:33:05.587Z,17.45
2018-12-17T07:38:31.095Z,16.73
2018-12-17T07:40:59.507Z,17.70
2018-12-17T07:43:27.681Z,16.32
2018-12-17T07:45:55.908Z,15.60
2018-12-17T07:48:24.062Z,13.85
2018-12-17T07:50:52.212Z,16.30
2018-12-17T07:53:20.400Z,16.23
2018-12-17T07:55:48.639Z,16.10
2018-12-17T07:58:16.796Z,19.40
2018-12-17T08:00:44.942Z,19.77
2018-12-17T08:03:13.156Z,17.27
2018-12-17T08:05:41.300Z,13.48
2018-12-17T08:08:09.553Z,13.83
2018-12-17T08:10:37.696Z,13.55
2018-12-17T08:13:06.022Z,13.93
2018-12-17T08:15:34.241Z,12.07
2018-12-17T08:18:13.740Z,14.05
2018-12-17T08:20:41.960Z,12.45
2018-12-17T08:23:10.139Z,11.83
2018-12-17T08:25:38.281Z,12.25
2018-12-17T08:28:06.523Z,11.10
2018-12-17T08:30:34.738Z,12.75
2018-12-17T08:33:02.906Z,11.48
2018-12-17T08:35:31.133Z,12.82
2018-12-17T08:37:59.469Z,13.48
2018-12-17T08:40:27.843Z,14.10
2018-12-17T08:42:56.114Z,13.68
2018-12-17T08:45:24.306Z,14.03
2018-12-17T08:47:52.551Z,18.77
2018-12-17T08:50:20.733Z,29.98
2018-12-17T08:52:48.988Z,19.67
2018-12-17T08:55:17.141Z,15.08
2018-12-17T08:57:45.278Z,21.52
2018-12-17T09:00:13.700Z,18.82
2018-12-17T09:02:41.903Z,15.08
2018-12-17T09:05:10.135Z,14.80
2018-12-17T09:07:38.273Z,14.07
2018-12-17T09:10:07.591Z,13.62
2018-12-17T09:12:35.732Z,12.03
2018-12-17T09:15:04.671Z,12.75
2018-12-17T09:17:32.808Z,12.25
2018-12-17T09:20:00.956Z,12.33
2018-12-17T09:22:29.190Z,11.97
2018-12-17T09:24:57.393Z,11.60
2018-12-17T09:27:25.548Z,11.12
2018-12-17T09:29:53.764Z,9.23
2018-12-17T09:32:21.924Z,11.78
2018-12-17T09:34:50.081Z,11.00
2018-12-17T09:37:18.376Z,10.40
2018-12-17T09:39:46.618Z,9.60
2018-12-17T09:42:14.829Z,10.43
2018-12-17T09:44:43.036Z,10.17
2018-12-17T09:47:18.360Z,11.07
2018-12-17T09:49:49.686Z,10.60
2018-12-17T09:52:31.259Z,11.00
2018-12-17T09:58:03.948Z,11.33
2018-12-17T11:02:41.445Z,10.95
2018-12-17T11:05:15.410Z,11.83
2018-12-17T11:07:43.528Z,11.60
2018-12-17T11:10:11.759Z,10.30
2018-12-17T11:12:39.888Z,12.00
2018-12-17T11:15:10.092Z,10.00
2018-12-17T11:17:38.280Z,10.25
2018-12-17T11:20:08.483Z,11.57
2018-12-17T11:22:36.696Z,16.20
2018-12-17T11:25:05.827Z,14.03
2018-12-17T11:27:33.961Z,12.35
2018-12-17T11:30:02.241Z,10.90
2018-12-17T11:32:30.372Z,9.65
2018-12-17T11:34:58.584Z,11.70
2018-12-17T11:37:26.725Z,13.75
2018-12-17T11:39:54.965Z,9.80
2018-12-17T11:42:23.114Z,10.28
2018-12-17T11:44:51.295Z,10.00
2018-12-17T11:47:19.492Z,11.28
2018-12-17T11:49:47.628Z,10.03
2018-12-17T11:52:15.768Z,9.00
2018-12-17T11:54:43.973Z,9.40
2018-12-17T11:58:21.679Z,8.58
2018-12-17T12:00:57.329Z,8.73
2018-12-17T12:03:25.548Z,10.05
2018-12-17T12:05:53.762Z,10.60
2018-12-17T12:08:21.912Z,10.18
2018-12-17T12:10:50.125Z,9.68
2018-12-17T12:13:18.264Z,8.70
2018-12-17T12:15:46.492Z,10.40
2018-12-17T12:18:15.457Z,10.13
2018-12-17T12:20:45.928Z,10.15
2018-12-17T12:23:14.490Z,8.18
2018-12-17T12:25:43.119Z,7.78
2018-12-17T12:28:11.241Z,7.90
2018-12-17T12:30:48.741Z,8.40
2018-12-17T12:33:16.974Z,7.25
2018-12-17T12:35:45.176Z,6.50
2018-12-17T12:38:13.331Z,6.22
2018-12-17T12:40:41.583Z,8.50
2018-12-17T12:43:09.712Z,6.75
2018-12-17T12:45:37.971Z,6.42
2018-12-17T12:48:06.307Z,6.62
2018-12-17T12:50:34.436Z,5.53
2018-12-17T12:53:02.663Z,5.87
2018-12-17T12:55:30.876Z,5.30
2018-12-17T12:58:03.574Z,4.57
2018-12-17T13:00:29.484Z,5.47
2018-12-17T13:02:57.649Z,5.80
2018-12-17T13:05:25.797Z,4.77
2018-12-17T13:07:53.929Z,4.50
2018-12-17T13:10:22.075Z,4.33
2018-12-17T13:12:50.299Z,4.30
2018-12-17T13:15:18.440Z,3.60
2018-12-17T13:17:46.591Z,2.27
2018-12-17T13:20:14.731Z,2.00
2018-12-17T13:22:42.861Z,2.23
2018-12-17T13:25:19.200Z,2.57
2018-12-17T13:27:47.535Z,2.50
2018-12-17T13:30:15.743Z,2.13
2018-12-17T13:32:44.054Z,2.40
2018-12-17T13:35:12.356Z,3.27
2018-12-17T13:37:40.512Z,2.10
2018-12-17T13:40:10.135Z,2.27
2018-12-17T13:42:41.995Z,1.80
2018-12-17T13:45:22.915Z,2.30
2018-12-17T13:47:51.109Z,7.23
2018-12-17T13:50:29.982Z,2.13
2018-12-17T13:52:58.863Z,2.30
2018-12-17T13:55:27.049Z,6.50
2018-12-17T13:57:55.597Z,9.00
2018-12-17T14:00:23.880Z,21.40
2018-12-17T14:02:52.096Z,9.10
2018-12-17T14:05:20.248Z,3.90
2018-12-17T14:07:48.372Z,2.50
2018-12-17T14:10:22.046Z,2.10
2018-12-17T14:12:50.179Z,2.60
2018-12-17T14:15:18.301Z,2.13
2018-12-17T14:17:47.321Z,2.57
2018-12-17T14:20:20.906Z,2.80
2018-12-17T14:22:49.103Z,1.90
2018-12-17T14:25:17.243Z,2.40
2018-12-17T14:27:45.388Z,2.27
2018-12-17T14:30:13.600Z,2.08
2018-12-17T14:32:41.765Z,2.47
2018-12-17T14:35:09.944Z,2.47
2018-12-17T14:37:42.419Z,2.30
2018-12-17T14:40:10.767Z,2.40
2018-12-17T14:42:39.050Z,2.77
2018-12-17T14:45:07.868Z,2.45
2018-12-17T14:47:36.132Z,2.00
2018-12-17T14:50:07.780Z,1.75
2018-12-17T14:52:35.937Z,2.85
2018-12-17T14:55:04.552Z,3.65
2018-12-17T14:57:32.850Z,3.22
2018-12-17T15:00:01.068Z,2.60
2018-12-17T15:02:29.242Z,2.37
2018-12-17T15:04:57.520Z,2.50
2018-12-17T15:07:25.728Z,2.75
2018-12-17T15:09:53.859Z,2.60
2018-12-17T15:12:21.988Z,7.20
2018-12-17T15:14:50.157Z,12.13
2018-12-17T15:17:18.354Z,5.60
2018-12-17T15:19:46.802Z,5.70
2018-12-17T15:22:14.944Z,4.75
2018-12-17T15:24:43.100Z,4.97
2018-12-17T15:27:11.325Z,6.83
2018-12-17T15:29:39.548Z,5.67
2018-12-17T15:32:07.768Z,5.22
2018-12-17T15:34:35.917Z,7.47
2018-12-17T15:37:04.113Z,5.22
2018-12-17T15:39:32.296Z,6.25
2018-12-17T15:42:00.440Z,8.33
2018-12-17T15:44:28.979Z,4.20
2018-12-17T15:46:57.340Z,2.98
2018-12-17T15:49:25.486Z,3.35
2018-12-17T15:51:53.629Z,3.20
2018-12-17T15:54:21.929Z,3.47
2018-12-17T15:56:52.641Z,3.42
2018-12-17T15:59:21.034Z,3.40
2018-12-17T16:01:50.145Z,3.17
2018-12-17T16:04:18.559Z,3.55
2018-12-17T16:06:46.699Z,4.03
2018-12-17T16:09:14.844Z,4.25
2018-12-17T16:11:42.970Z,3.70
2018-12-17T16:14:11.091Z,3.75
2018-12-17T16:16:39.230Z,4.45
2018-12-17T16:19:07.364Z,5.00
2018-12-17T16:21:35.568Z,4.53
2018-12-17T16:24:03.860Z,5.00
2018-12-17T16:26:32.056Z,4.47
2018-12-17T16:29:00.192Z,5.75
2018-12-17T16:31:28.392Z,5.40
2018-12-17T16:33:56.538Z,5.20
2018-12-17T16:36:24.668Z,5.00
2018-12-17T16:38:52.864Z,4.70
2018-12-17T16:41:21.055Z,5.05
2018-12-17T16:43:49.196Z,4.53
2018-12-17T16:46:17.480Z,5.70
2018-12-17T16:48:46.236Z,5.40
2018-12-17T16:51:14.363Z,4.75
2018-12-17T16:53:42.579Z,5.40
2018-12-17T16:56:10.725Z,5.42
2018-12-17T16:58:38.851Z,4.75
2018-12-17T17:01:06.988Z,5.30
2018-12-17T17:03:35.226Z,4.97
2018-12-17T17:06:03.533Z,5.40
2018-12-17T17:08:31.649Z,4.87
2018-12-17T17:10:59.783Z,5.22
2018-12-17T17:13:27.996Z,6.28
2018-12-17T17:15:56.216Z,6.72
2018-12-17T17:18:24.417Z,6.53
2018-12-17T17:20:52.653Z,7.03
2018-12-17T17:23:20.857Z,7.45
2018-12-17T17:25:48.987Z,7.78
2018-12-17T17:28:17.125Z,7.60
2018-12-17T17:30:45.264Z,8.45
2018-12-17T17:33:13.467Z,7.40
2018-12-17T17:35:41.616Z,9.30
2018-12-17T17:38:09.751Z,13.98
2018-12-17T17:40:37.892Z,20.95
2018-12-17T17:43:06.022Z,15.48
2018-12-17T17:45:34.220Z,11.93
2018-12-17T17:48:02.426Z,9.48
2018-12-17T17:50:30.666Z,7.55
2018-12-17T17:52:58.940Z,11.70
2018-12-17T17:55:27.156Z,9.05
2018-12-17T17:57:55.292Z,9.50
2018-12-17T18:00:23.508Z,9.28
2018-12-17T18:02:51.761Z,9.63
2018-12-17T18:05:19.930Z,9.63
2018-12-17T18:07:48.048Z,8.88
2018-12-17T18:10:16.179Z,10.53
2018-12-17T18:12:44.287Z,9.05
2018-12-17T18:15:12.495Z,8.50
2018-12-17T18:17:40.616Z,8.30
2018-12-17T18:20:08.844Z,7.75
2018-12-17T18:22:37.213Z,9.40
2018-12-17T18:25:05.508Z,9.80
2018-12-17T18:27:33.625Z,8.90
2018-12-17T18:30:01.854Z,10.80
2018-12-17T18:32:30.150Z,10.85
2018-12-17T18:34:58.305Z,9.95
2018-12-17T18:37:26.450Z,9.85
2018-12-17T18:39:54.573Z,9.05
2018-12-17T18:42:22.712Z,9.85
2018-12-17T18:44:50.879Z,11.22
2018-12-17T18:47:25.513Z,9.75
2018-12-17T18:49:49.228Z,10.35
2018-12-17T18:52:17.380Z,11.35
2018-12-17T18:54:45.548Z,13.88
2018-12-17T18:57:13.713Z,14.23
2018-12-17T18:59:45.280Z,14.20
2018-12-17T19:02:13.572Z,12.88
2018-12-17T19:04:45.860Z,13.00
2018-12-17T19:07:17.329Z,11.00
2018-12-17T19:09:51.997Z,12.75
2018-12-17T19:12:26.242Z,12.60
2018-12-17T19:14:57.445Z,12.30
2018-12-17T19:17:29.408Z,13.45
2018-12-17T19:19:59.232Z,13.83
2018-12-17T19:22:33.910Z,15.78
2018-12-17T19:28:05.264Z,17.87
2018-12-17T19:30:33.458Z,16.82
2018-12-17T19:33:01.696Z,15.50
2018-12-17T19:35:29.859Z,13.78
2018-12-17T19:37:58.079Z,14.23
2018-12-17T19:40:26.310Z,15.25
2018-12-17T19:42:54.455Z,14.90
2018-12-17T19:45:22.705Z,15.40
2018-12-17T19:47:50.932Z,15.80
2018-12-17T19:50:19.084Z,16.82
2018-12-17T19:52:47.220Z,16.42
2018-12-17T19:55:15.375Z,13.30
2018-12-17T19:57:43.505Z,12.85
2018-12-17T20:00:11.815Z,13.55
2018-12-17T20:02:46.756Z,13.40
2018-12-17T20:05:10.149Z,11.60
2018-12-17T20:07:38.393Z,12.47
2018-12-17T20:10:08.772Z,11.28
2018-12-17T20:12:36.997Z,11.88
2018-12-17T20:15:10.927Z,11.25
2018-12-17T20:17:42.341Z,11.03
2018-12-17T20:20:10.580Z,12.58
2018-12-17T20:25:34.431Z,12.75
2018-12-17T20:28:02.560Z,17.70
2018-12-17T20:30:30.724Z,21.65
2018-12-17T20:32:58.843Z,18.07
2018-12-17T20:35:27.812Z,15.72
2018-12-17T20:37:55.957Z,12.60
2018-12-17T20:40:27.252Z,12.55
2018-12-17T20:42:55.396Z,11.97
2018-12-17T20:45:23.607Z,11.40
2018-12-17T20:47:51.720Z,13.08
2018-12-17T20:50:19.856Z,11.93
2018-12-17T20:52:47.994Z,11.50
2018-12-17T20:55:16.101Z,10.90
2018-12-17T20:57:44.219Z,10.90
2018-12-17T21:00:12.492Z,11.43
2018-12-17T21:02:40.611Z,10.43
2018-12-17T21:05:08.828Z,10.68
2018-12-17T21:07:36.965Z,10.82
2018-12-17T21:10:09.405Z,9.60
2018-12-17T21:12:37.572Z,9.60
2018-12-17T21:15:06.489Z,9.35
2018-12-17T21:17:34.727Z,9.63
2018-12-17T21:20:03.780Z,10.25
2018-12-17T21:22:31.921Z,9.58
2018-12-17T21:25:00.128Z,10.38
2018-12-17T21:27:28.255Z,10.50
2018-12-17T21:29:56.380Z,10.75
2018-12-17T21:32:24.512Z,11.30
2018-12-17T21:34:52.655Z,10.25
2018-12-17T21:37:20.783Z,11.03
2018-12-17T21:39:48.911Z,11.75
2018-12-17T21:42:17.035Z,10.78
2018-12-17T21:44:45.161Z,11.55
2018-12-17T21:47:13.307Z,10.60
2018-12-17T21:49:41.509Z,12.47
2018-12-17T21:52:09.640Z,11.10
2018-12-17T21:54:37.768Z,10.25
2018-12-17T21:57:05.909Z,11.55
2018-12-17T21:59:34.039Z,11.05
2018-12-17T22:02:02.193Z,11.60
2018-12-17T22:04:30.299Z,11.75
2018-12-17T22:06:58.443Z,12.28
2018-12-17T22:09:26.717Z,12.55
2018-12-17T22:11:54.934Z,12.63
2018-12-17T22:14:23.204Z,10.78
2018-12-17T22:16:51.357Z,11.85
2018-12-17T22:19:19.568Z,16.37
2018-12-17T22:21:47.702Z,15.98
2018-12-17T22:24:15.836Z,17.27
2018-12-17T22:26:43.964Z,17.10
2018-12-17T22:29:12.096Z,15.85
2018-12-17T22:31:40.237Z,17.77
2018-12-17T22:34:08.375Z,18.75
2018-12-17T22:36:36.504Z,14.53
2018-12-17T22:39:06.308Z,16.12
2018-12-17T22:41:34.480Z,16.85
2018-12-17T22:44:02.768Z,16.93
2018-12-17T22:46:30.911Z,17.02
2018-12-17T22:48:59.035Z,16.67
2018-12-17T22:51:27.172Z,19.30
2018-12-17T22:53:55.293Z,17.87
2018-12-17T22:56:23.436Z,20.05
2018-12-17T22:58:51.566Z,20.35
2018-12-17T23:01:19.795Z,18.37
2018-12-17T23:03:48.018Z,17.02
2018-12-17T23:06:16.148Z,17.82
2018-12-17T23:08:55.867Z,18.77
2018-12-17T23:11:39.632Z,17.02
2018-12-17T23:14:19.365Z,18.77
2018-12-17T23:16:58.944Z,20.15
2018-12-17T23:19:26.211Z,22.65
2018-12-17T23:21:54.700Z,23.52
2018-12-17T23:24:22.913Z,19.73
2018-12-17T23:26:51.116Z,20.90
2018-12-17T23:29:19.402Z,19.37
2018-12-17T23:31:53.152Z,18.65
2018-12-17T23:34:21.356Z,20.97
2018-12-17T23:36:49.487Z,21.15
2018-12-17T23:39:18.124Z,18.35
2018-12-17T23:41:46.600Z,18.90
2018-12-17T23:44:14.816Z,19.50
2018-12-17T23:46:43.085Z,16.40
2018-12-17T23:49:11.284Z,16.90
2018-12-17T23:51:39.601Z,19.92
2018-12-17T23:54:07.737Z,18.60
2018-12-17T23:56:36.012Z,19.65
2018-12-17T23:59:04.404Z,19.15
